createdAt,value
2018-09-17T00:01:37.389Z,17.90
2018-09-17T00:04:05.664Z,17.90
2018-09-17T00:06:33.986Z,17.90
2018-09-17T00:09:02.265Z,17.80
2018-09-17T00:11:30.498Z,17.70
2018-09-17T00:13:58.821Z,17.70
2018-09-17T00:16:27.098Z,17.80
2018-09-17T00:18:55.378Z,17.80
2018-09-17T00:21:23.649Z,17.90
2018-09-17T00:23:51.870Z,17.80
2018-09-17T00:26:20.194Z,17.80
2018-09-17T00:28:48.633Z,17.90
2018-09-17T00:31:16.925Z,18.10
2018-09-17T00:33:45.134Z,17.90
2018-09-17T00:36:13.380Z,17.90
2018-09-17T00:38:41.689Z,17.90
2018-09-17T00:41:09.954Z,17.90
2018-09-17T00:43:38.338Z,17.70
2018-09-17T00:46:06.585Z,17.70
2018-09-17T00:48:34.862Z,17.80
2018-09-17T00:51:03.258Z,18.00
2018-09-17T00:53:31.513Z,17.90
2018-09-17T00:55:59.825Z,17.70
2018-09-17T00:58:28.116Z,17.80
2018-09-17T01:00:56.394Z,18.00
2018-09-17T01:03:24.690Z,18.10
2018-09-17T01:05:52.955Z,18.00
2018-09-17T01:08:21.189Z,17.80
2018-09-17T01:10:49.585Z,17.80
2018-09-17T01:13:17.823Z,17.70
2018-09-17T01:15:46.172Z,17.60
2018-09-17T01:18:14.473Z,17.60
2018-09-17T01:20:42.749Z,17.70
2018-09-17T01:23:10.965Z,17.60
2018-09-17T01:25:39.294Z,17.80
2018-09-17T01:28:07.578Z,17.80
2018-09-17T01:30:36.008Z,17.90
2018-09-17T01:33:04.180Z,18.00
2018-09-17T01:35:32.509Z,17.80
2018-09-17T01:38:00.834Z,17.70
2018-09-17T01:40:29.143Z,17.70
2018-09-17T01:42:57.386Z,17.60
2018-09-17T01:45:25.612Z,17.70
2018-09-17T01:47:53.874Z,17.80
2018-09-17T01:50:22.132Z,17.70
2018-09-17T01:52:50.442Z,17.70
2018-09-17T01:55:18.666Z,17.40
2018-09-17T01:57:46.888Z,17.40
2018-09-17T02:00:15.143Z,17.40
2018-09-17T02:02:43.410Z,17.70
2018-09-17T02:05:11.641Z,17.70
2018-09-17T02:07:39.852Z,17.90
2018-09-17T02:10:08.064Z,17.90
2018-09-17T02:12:36.295Z,18.00
2018-09-17T02:15:04.537Z,17.90
2018-09-17T02:17:32.777Z,17.70
2018-09-17T02:20:01.068Z,17.70
2018-09-17T02:22:29.281Z,17.80
2018-09-17T02:24:57.557Z,17.90
2018-09-17T02:27:25.818Z,17.90
2018-09-17T02:29:54.158Z,17.90
2018-09-17T02:32:22.398Z,17.70
2018-09-17T02:34:50.777Z,17.70
2018-09-17T02:37:19.018Z,17.70
2018-09-17T02:39:47.241Z,17.70
2018-09-17T02:42:15.473Z,17.60
2018-09-17T02:44:43.807Z,17.40
2018-09-17T02:47:12.030Z,17.50
2018-09-17T02:49:40.364Z,17.50
2018-09-17T02:52:08.583Z,17.50
2018-09-17T02:54:36.868Z,17.40
2018-09-17T02:57:05.486Z,17.50
2018-09-17T02:59:34.548Z,17.40
2018-09-17T03:02:02.858Z,17.30
2018-09-17T03:04:31.134Z,17.40
2018-09-17T03:06:59.342Z,17.60
2018-09-17T03:09:27.631Z,17.50
2018-09-17T03:11:55.856Z,17.50
2018-09-17T03:14:28.230Z,17.60
2018-09-17T03:17:12.757Z,17.50
2018-09-17T03:19:42.141Z,17.60
2018-09-17T03:22:10.730Z,17.60
2018-09-17T03:24:39.151Z,17.80
2018-09-17T03:27:07.812Z,17.90
2018-09-17T03:29:36.165Z,18.00
2018-09-17T03:32:04.693Z,18.00
2018-09-17T03:34:32.926Z,17.90
2018-09-17T03:37:01.366Z,17.90
2018-09-17T03:39:29.604Z,17.90
2018-09-17T03:41:57.827Z,17.80
2018-09-17T03:44:26.125Z,17.90
2018-09-17T03:46:54.416Z,18.00
2018-09-17T03:49:22.630Z,17.90
2018-09-17T03:51:50.854Z,17.80
2018-09-17T03:54:19.136Z,17.60
2018-09-17T03:56:47.353Z,17.60
2018-09-17T03:59:15.579Z,17.50
2018-09-17T04:01:43.787Z,17.40
2018-09-17T04:04:12.027Z,17.50
2018-09-17T04:06:40.322Z,17.60
2018-09-17T04:09:08.821Z,17.60
2018-09-17T04:11:37.093Z,17.60
2018-09-17T04:14:05.792Z,17.40
2018-09-17T04:16:34.016Z,17.40
2018-09-17T04:19:02.253Z,17.30
2018-09-17T04:21:30.517Z,17.20
2018-09-17T04:23:58.758Z,17.20
2018-09-17T04:26:27.066Z,17.20
2018-09-17T04:28:55.297Z,17.00
2018-09-17T04:31:23.530Z,16.90
2018-09-17T04:33:51.741Z,17.00
2018-09-17T04:36:20.029Z,17.20
2018-09-17T04:38:48.354Z,17.20
2018-09-17T04:41:16.641Z,17.20
2018-09-17T04:43:44.861Z,17.40
2018-09-17T04:46:13.138Z,17.30
2018-09-17T04:48:41.410Z,17.40
2018-09-17T04:51:09.756Z,17.30
2018-09-17T04:53:37.977Z,17.30
2018-09-17T04:56:06.217Z,17.10
2018-09-17T04:58:34.539Z,17.10
2018-09-17T05:01:03.034Z,17.10
2018-09-17T05:03:31.300Z,17.20
2018-09-17T05:05:59.528Z,17.20
2018-09-17T05:08:27.806Z,17.30
2018-09-17T05:10:56.033Z,17.20
2018-09-17T05:13:24.428Z,17.00
2018-09-17T05:15:52.581Z,16.90
2018-09-17T05:18:20.894Z,16.80
2018-09-17T05:20:49.313Z,16.60
2018-09-17T05:23:17.540Z,16.80
2018-09-17T05:25:46.610Z,16.70
2018-09-17T05:28:14.943Z,16.70
2018-09-17T05:30:43.395Z,16.70
2018-09-17T05:33:14.251Z,16.40
2018-09-17T05:35:42.486Z,16.30
2018-09-17T05:38:11.083Z,16.30
2018-09-17T05:40:39.379Z,16.60
2018-09-17T05:43:07.651Z,16.60
2018-09-17T05:45:35.984Z,16.50
2018-09-17T05:48:04.312Z,16.60
2018-09-17T05:50:32.602Z,16.80
2018-09-17T05:53:01.022Z,16.80
2018-09-17T05:55:29.339Z,17.00
2018-09-17T05:57:57.574Z,17.20
2018-09-17T06:00:26.001Z,17.40
2018-09-17T06:02:54.281Z,17.20
2018-09-17T06:05:22.569Z,17.40
2018-09-17T06:07:50.881Z,17.40
2018-09-17T06:10:19.246Z,17.00
2018-09-17T06:12:48.409Z,17.10
2018-09-17T06:15:16.970Z,17.40
2018-09-17T06:17:45.674Z,17.60
2018-09-17T06:20:14.059Z,17.90
2018-09-17T06:22:42.308Z,18.00
2018-09-17T06:25:10.567Z,18.00
2018-09-17T06:27:38.806Z,17.70
2018-09-17T06:30:08.127Z,17.60
2018-09-17T06:32:36.467Z,17.80
2018-09-17T06:35:04.762Z,18.00
2018-09-17T06:37:33.020Z,18.10
2018-09-17T06:40:01.262Z,18.00
2018-09-17T06:42:29.918Z,17.80
2018-09-17T06:44:58.254Z,17.90
2018-09-17T06:47:26.441Z,18.00
2018-09-17T06:49:54.687Z,18.10
2018-09-17T06:52:22.943Z,17.90
2018-09-17T06:54:51.180Z,17.90
2018-09-17T06:57:19.490Z,18.20
2018-09-17T06:59:47.824Z,18.20
2018-09-17T07:02:16.121Z,18.40
2018-09-17T07:04:44.553Z,18.50
2018-09-17T07:07:12.850Z,18.70
2018-09-17T07:09:41.142Z,18.90
2018-09-17T07:12:09.470Z,18.90
2018-09-17T07:14:37.839Z,18.80
2018-09-17T07:17:06.179Z,18.70
2018-09-17T07:19:34.481Z,18.80
2018-09-17T07:22:02.697Z,19.20
2018-09-17T07:24:30.980Z,19.20
2018-09-17T07:26:59.417Z,19.40
2018-09-17T07:29:27.654Z,19.20
2018-09-17T07:31:55.914Z,19.10
2018-09-17T07:34:24.158Z,19.40
2018-09-17T07:36:52.446Z,19.60
2018-09-17T07:39:20.778Z,19.80
2018-09-17T07:41:49.091Z,19.90
2018-09-17T07:44:17.414Z,20.20
2018-09-17T07:46:45.626Z,20.30
2018-09-17T07:49:13.840Z,20.00
2018-09-17T07:51:42.045Z,20.20
2018-09-17T07:54:10.394Z,19.90
2018-09-17T07:56:38.608Z,19.60
2018-09-17T07:59:06.855Z,19.90
2018-09-17T08:01:35.201Z,20.00
2018-09-17T08:04:03.498Z,20.00
2018-09-17T08:06:31.778Z,20.10
2018-09-17T08:09:00.058Z,20.40
2018-09-17T08:11:28.372Z,20.40
2018-09-17T08:13:56.589Z,20.30
2018-09-17T08:16:24.865Z,20.50
2018-09-17T08:18:53.174Z,20.80
2018-09-17T08:21:21.490Z,20.80
2018-09-17T08:23:49.681Z,20.60
2018-09-17T08:26:17.957Z,21.00
2018-09-17T08:28:46.214Z,20.80
2018-09-17T08:31:14.527Z,20.90
2018-09-17T08:33:42.877Z,21.10
2018-09-17T08:36:11.094Z,21.10
2018-09-17T08:38:39.574Z,21.10
2018-09-17T08:41:08.125Z,21.40
2018-09-17T08:43:36.417Z,21.40
2018-09-17T08:46:04.888Z,21.50
2018-09-17T08:48:33.145Z,21.90
2018-09-17T08:51:01.370Z,22.00
2018-09-17T08:53:29.605Z,22.20
2018-09-17T08:55:59.694Z,22.20
2018-09-17T08:59:33.012Z,22.20
2018-09-17T09:02:06.486Z,22.90
2018-09-17T09:04:40.198Z,22.90
2018-09-17T09:07:15.391Z,23.60
2018-09-17T09:09:43.857Z,23.70
2018-09-17T09:12:17.562Z,24.10
2018-09-17T09:14:45.998Z,24.00
2018-09-17T09:17:14.459Z,24.10
2018-09-17T09:19:42.882Z,23.80
2018-09-17T09:22:11.171Z,23.80
2018-09-17T09:24:39.426Z,24.30
2018-09-17T09:27:07.795Z,25.20
2018-09-17T09:29:36.158Z,25.60
2018-09-17T09:32:04.410Z,25.70
2018-09-17T09:34:32.714Z,26.10
2018-09-17T09:37:01.000Z,26.30
2018-09-17T09:39:29.296Z,25.50
2018-09-17T09:41:57.577Z,25.00
2018-09-17T09:44:25.913Z,24.90
2018-09-17T09:46:54.254Z,25.00
2018-09-17T09:49:22.503Z,25.50
2018-09-17T09:51:50.782Z,25.10
2018-09-17T09:54:19.012Z,25.00
2018-09-17T09:56:47.223Z,24.90
2018-09-17T09:59:15.465Z,25.50
2018-09-17T10:01:49.240Z,26.10
2018-09-17T10:04:23.468Z,25.80
2018-09-17T10:06:52.666Z,25.50
2018-09-17T10:09:26.090Z,25.90
2018-09-17T10:11:59.744Z,25.50
2018-09-17T10:14:33.388Z,25.70
2018-09-17T10:17:07.073Z,25.00
2018-09-17T10:19:36.134Z,24.50
2018-09-17T10:22:04.547Z,24.40
2018-09-17T10:24:32.769Z,24.90
2018-09-17T10:27:01.119Z,25.60
2018-09-17T10:29:29.402Z,25.10
2018-09-17T10:31:58.393Z,25.70
2018-09-17T10:34:26.735Z,25.30
2018-09-17T10:36:55.259Z,25.40
2018-09-17T10:39:23.674Z,25.70
2018-09-17T10:41:51.942Z,25.80
2018-09-17T10:44:20.895Z,25.90
2018-09-17T10:46:49.190Z,25.70
2018-09-17T10:49:17.503Z,25.80
2018-09-17T10:51:45.734Z,25.40
2018-09-17T10:54:14.049Z,25.20
2018-09-17T10:56:42.254Z,25.30
2018-09-17T10:59:10.499Z,25.50
2018-09-17T11:01:38.722Z,25.90
2018-09-17T11:04:06.997Z,25.60
2018-09-17T11:06:35.232Z,26.20
2018-09-17T11:09:03.531Z,26.50
2018-09-17T11:11:31.834Z,26.30
2018-09-17T11:14:00.085Z,26.00
2018-09-17T11:16:28.386Z,26.30
2018-09-17T11:18:56.682Z,25.80
2018-09-17T11:21:24.938Z,25.90
2018-09-17T11:23:53.287Z,25.70
2018-09-17T11:26:21.546Z,25.90
2018-09-17T11:28:49.922Z,25.80
2018-09-17T11:31:18.505Z,25.80
2018-09-17T11:33:46.953Z,25.60
2018-09-17T11:36:15.159Z,25.50
2018-09-17T11:38:43.626Z,25.60
2018-09-17T11:41:11.885Z,25.10
2018-09-17T11:43:40.103Z,25.60
2018-09-17T11:46:08.386Z,25.50
2018-09-17T11:48:36.642Z,25.50
2018-09-17T11:51:04.990Z,25.60
2018-09-17T11:53:33.297Z,25.80
2018-09-17T11:56:01.485Z,26.00
2018-09-17T11:58:29.749Z,25.80
2018-09-17T12:01:03.280Z,25.80
2018-09-17T12:03:37.042Z,25.90
2018-09-17T12:06:05.544Z,25.60
2018-09-17T12:08:34.260Z,25.60
2018-09-17T12:11:02.623Z,25.80
2018-09-17T12:13:30.898Z,26.60
2018-09-17T12:15:59.193Z,26.60
2018-09-17T12:18:27.463Z,26.50
2018-09-17T12:20:55.689Z,26.40
2018-09-17T12:23:23.966Z,26.30
2018-09-17T12:25:52.332Z,26.20
2018-09-17T12:28:20.566Z,26.30
2018-09-17T12:30:48.778Z,26.10
2018-09-17T12:33:16.998Z,26.00
2018-09-17T12:35:45.242Z,26.30
2018-09-17T12:38:13.494Z,26.50
2018-09-17T12:40:41.780Z,26.10
2018-09-17T12:43:09.994Z,26.00
2018-09-17T12:45:38.265Z,26.00
2018-09-17T12:48:06.593Z,26.30
2018-09-17T12:50:34.823Z,26.20
2018-09-17T12:53:03.061Z,26.10
2018-09-17T12:55:31.282Z,26.30
2018-09-17T12:57:59.531Z,26.60
2018-09-17T13:00:27.802Z,26.60
2018-09-17T13:02:56.026Z,26.40
2018-09-17T13:05:24.246Z,26.50
2018-09-17T13:07:52.517Z,26.30
2018-09-17T13:10:20.793Z,26.00
2018-09-17T13:12:49.002Z,25.90
2018-09-17T13:15:17.294Z,25.70
2018-09-17T13:17:45.494Z,26.00
2018-09-17T13:20:13.736Z,26.10
2018-09-17T13:22:41.970Z,26.00
2018-09-17T13:25:10.230Z,26.20
2018-09-17T13:27:38.469Z,26.00
2018-09-17T13:30:07.038Z,26.00
2018-09-17T13:32:35.294Z,26.40
2018-09-17T13:35:03.566Z,26.40
2018-09-17T13:37:31.831Z,26.10
2018-09-17T13:40:00.043Z,26.00
2018-09-17T13:42:28.417Z,25.70
2018-09-17T13:44:56.705Z,25.10
2018-09-17T13:47:25.058Z,25.40
2018-09-17T13:49:53.455Z,25.20
2018-09-17T13:52:21.693Z,25.00
2018-09-17T13:54:49.991Z,25.30
2018-09-17T13:57:18.321Z,25.20
2018-09-17T13:59:46.643Z,25.20
2018-09-17T14:02:14.888Z,25.10
2018-09-17T14:04:43.154Z,25.10
2018-09-17T14:07:11.410Z,25.00
2018-09-17T14:09:39.710Z,25.30
2018-09-17T14:12:08.023Z,25.30
2018-09-17T14:14:36.292Z,25.30
2018-09-17T14:17:04.767Z,25.00
2018-09-17T14:19:33.168Z,25.00
2018-09-17T14:22:01.404Z,24.90
2018-09-17T14:24:29.677Z,25.20
2018-09-17T14:26:57.940Z,25.20
2018-09-17T14:29:26.162Z,25.40
2018-09-17T14:31:59.776Z,25.10
2018-09-17T14:34:28.089Z,25.30
2018-09-17T14:36:56.330Z,25.30
2018-09-17T14:39:24.539Z,25.60
2018-09-17T14:41:52.763Z,25.60
2018-09-17T14:44:21.064Z,25.60
2018-09-17T14:46:49.381Z,25.80
2018-09-17T14:49:17.614Z,25.40
2018-09-17T14:51:46.163Z,25.40
2018-09-17T14:54:14.512Z,25.30
2018-09-17T14:56:42.714Z,25.20
2018-09-17T14:59:11.063Z,25.00
2018-09-17T15:01:39.450Z,24.90
2018-09-17T15:04:07.720Z,25.30
2018-09-17T15:06:36.059Z,25.40
2018-09-17T15:09:07.063Z,25.50
2018-09-17T15:11:35.332Z,25.20
2018-09-17T15:14:03.645Z,25.60
2018-09-17T15:16:31.827Z,25.50
2018-09-17T15:19:00.807Z,25.50
2018-09-17T15:21:29.129Z,25.40
2018-09-17T15:23:57.537Z,25.60
2018-09-17T15:26:25.657Z,25.30
2018-09-17T15:28:53.909Z,25.30
2018-09-17T15:31:22.307Z,25.40
2018-09-17T15:33:50.525Z,25.50
2018-09-17T15:36:18.922Z,25.80
2018-09-17T15:38:47.233Z,26.00
2018-09-17T15:41:15.650Z,25.80
2018-09-17T15:43:43.909Z,25.70
2018-09-17T15:46:12.238Z,25.40
2018-09-17T15:48:40.427Z,25.00
2018-09-17T15:51:08.674Z,25.20
2018-09-17T15:53:36.908Z,25.30
2018-09-17T15:56:05.815Z,25.30
2018-09-17T15:58:34.046Z,25.10
2018-09-17T16:01:02.329Z,25.40
2018-09-17T16:03:30.627Z,25.30
2018-09-17T16:05:58.897Z,25.60
2018-09-17T16:08:27.126Z,25.30
2018-09-17T16:10:55.358Z,25.10
2018-09-17T16:13:23.611Z,25.20
2018-09-17T16:15:51.903Z,25.20
2018-09-17T16:18:20.234Z,25.10
2018-09-17T16:20:49.068Z,25.30
2018-09-17T16:23:17.294Z,25.40
2018-09-17T16:25:45.803Z,25.70
2018-09-17T16:28:14.095Z,25.40
2018-09-17T16:30:42.519Z,25.30
2018-09-17T16:33:10.762Z,25.30
2018-09-17T16:35:38.954Z,25.10
2018-09-17T16:38:07.201Z,24.90
2018-09-17T16:40:35.516Z,25.00
2018-09-17T16:43:03.790Z,25.20
2018-09-17T16:45:32.056Z,25.40
2018-09-17T16:48:00.466Z,25.40
2018-09-17T16:50:28.673Z,25.60
2018-09-17T16:52:57.005Z,25.80
2018-09-17T16:55:25.158Z,25.90
2018-09-17T16:57:53.726Z,25.70
2018-09-17T17:00:23.067Z,25.70
2018-09-17T17:02:51.354Z,25.60
2018-09-17T17:05:19.739Z,25.60
2018-09-17T17:07:47.910Z,25.50
2018-09-17T17:10:16.328Z,25.30
2018-09-17T17:12:44.498Z,25.20
2018-09-17T17:15:12.707Z,25.10
2018-09-17T17:17:41.014Z,25.30
2018-09-17T17:20:09.229Z,25.30
2018-09-17T17:22:37.567Z,25.30
2018-09-17T17:25:05.819Z,25.20
2018-09-17T17:27:34.093Z,25.10
2018-09-17T17:30:02.400Z,24.90
2018-09-17T17:32:30.691Z,24.80
2018-09-17T17:34:58.910Z,25.10
2018-09-17T17:37:27.117Z,25.00
2018-09-17T17:39:57.062Z,24.90
2018-09-17T17:42:25.226Z,24.90
2018-09-17T17:44:53.912Z,24.90
2018-09-17T17:47:22.220Z,24.80
2018-09-17T17:49:50.491Z,24.80
2018-09-17T17:52:18.741Z,24.70
2018-09-17T17:54:46.938Z,24.60
2018-09-17T17:57:15.229Z,24.40
2018-09-17T17:59:43.529Z,24.40
2018-09-17T18:02:11.899Z,24.50
2018-09-17T18:04:40.143Z,24.50
2018-09-17T18:07:08.430Z,24.50
2018-09-17T18:09:36.730Z,24.40
2018-09-17T18:12:05.074Z,24.30
2018-09-17T18:14:33.385Z,24.20
2018-09-17T18:17:02.146Z,23.50
2018-09-17T18:19:30.386Z,23.40
2018-09-17T18:21:58.695Z,23.30
2018-09-17T18:24:26.971Z,23.30
2018-09-17T18:26:55.240Z,23.40
2018-09-17T18:29:23.596Z,23.40
2018-09-17T18:31:51.823Z,23.40
2018-09-17T18:34:20.054Z,23.30
2018-09-17T18:36:48.396Z,23.20
2018-09-17T18:39:16.714Z,22.90
2018-09-17T18:41:44.990Z,22.90
2018-09-17T18:44:13.218Z,22.90
2018-09-17T18:46:41.488Z,22.90
2018-09-17T18:49:09.773Z,22.90
2018-09-17T18:51:38.176Z,23.00
2018-09-17T18:54:06.540Z,22.90
2018-09-17T18:56:34.822Z,22.80
2018-09-17T18:59:03.107Z,22.80
2018-09-17T19:01:31.358Z,22.80
2018-09-17T19:03:59.716Z,22.70
2018-09-17T19:06:28.083Z,22.60
2018-09-17T19:08:56.386Z,22.50
2018-09-17T19:11:24.674Z,22.50
2018-09-17T19:13:58.357Z,22.50
2018-09-17T19:16:32.026Z,22.30
2018-09-17T19:19:00.276Z,22.30
2018-09-17T19:21:34.128Z,22.10
2018-09-17T19:24:04.936Z,21.90
2018-09-17T19:26:33.236Z,21.90
2018-09-17T19:29:07.066Z,21.80
2018-09-17T19:31:35.286Z,21.80
2018-09-17T19:34:03.628Z,21.80
2018-09-17T19:36:31.894Z,21.60
2018-09-17T19:39:05.606Z,21.60
2018-09-17T19:41:33.932Z,21.60
2018-09-17T19:44:02.200Z,21.60
2018-09-17T19:46:30.446Z,21.60
2018-09-17T19:48:58.826Z,21.60
2018-09-17T19:51:32.470Z,21.60
2018-09-17T19:54:00.871Z,21.50
2018-09-17T19:56:29.090Z,21.60
2018-09-17T19:59:02.609Z,21.50
2018-09-17T20:01:31.694Z,21.60
2018-09-17T20:04:04.176Z,21.40
2018-09-17T20:06:32.572Z,21.20
2018-09-17T20:09:00.790Z,21.20
2018-09-17T20:11:29.171Z,21.10
2018-09-17T20:13:57.485Z,21.00
2018-09-17T20:16:25.796Z,20.90
2018-09-17T20:18:54.133Z,21.00
2018-09-17T20:21:22.691Z,21.00
2018-09-17T20:23:51.842Z,20.90
2018-09-17T20:26:20.124Z,20.80
2018-09-17T20:28:48.414Z,20.70
2018-09-17T20:31:16.739Z,20.80
2018-09-17T20:33:44.926Z,20.80
2018-09-17T20:36:13.209Z,20.90
2018-09-17T20:38:41.687Z,20.70
2018-09-17T20:41:09.873Z,20.60
2018-09-17T20:43:38.486Z,20.60
2018-09-17T20:46:06.782Z,20.60
2018-09-17T20:48:35.005Z,20.40
2018-09-17T20:51:03.303Z,20.10
2018-09-17T20:53:31.582Z,19.80
2018-09-17T20:55:59.800Z,20.00
2018-09-17T20:58:28.214Z,20.10
2018-09-17T21:00:56.596Z,20.20
2018-09-17T21:03:24.914Z,20.30
2018-09-17T21:05:53.154Z,20.30
2018-09-17T21:08:21.442Z,20.20
2018-09-17T21:10:49.715Z,20.10
2018-09-17T21:13:18.023Z,19.80
2018-09-17T21:15:46.485Z,19.70
2018-09-17T21:18:14.767Z,19.50
2018-09-17T21:20:43.045Z,19.80
2018-09-17T21:23:11.254Z,20.10
2018-09-17T21:25:39.474Z,20.20
2018-09-17T21:28:07.826Z,19.80
2018-09-17T21:30:36.133Z,20.00
2018-09-17T21:33:04.396Z,20.20
2018-09-17T21:35:32.630Z,20.10
2018-09-17T21:38:00.886Z,20.00
2018-09-17T21:40:29.152Z,20.10
2018-09-17T21:42:57.415Z,20.10
2018-09-17T21:45:25.683Z,20.10
2018-09-17T21:47:53.987Z,20.20
2018-09-17T21:50:22.229Z,20.20
2018-09-17T21:52:50.505Z,20.20
2018-09-17T21:55:18.786Z,20.20
2018-09-17T21:57:47.061Z,20.10
2018-09-17T22:00:15.329Z,20.10
2018-09-17T22:02:43.586Z,20.00
2018-09-17T22:05:11.798Z,20.20
2018-09-17T22:07:40.060Z,20.10
2018-09-17T22:10:08.301Z,20.10
2018-09-17T22:12:36.541Z,20.00
2018-09-17T22:15:04.786Z,19.80
2018-09-17T22:17:33.010Z,19.80
2018-09-17T22:20:01.381Z,19.70
2018-09-17T22:22:29.605Z,19.60
2018-09-17T22:24:57.869Z,19.50
2018-09-17T22:27:26.167Z,19.50
2018-09-17T22:29:55.186Z,19.40
2018-09-17T22:32:23.480Z,19.30
2018-09-17T22:34:51.683Z,19.30
2018-09-17T22:37:20.005Z,19.40
2018-09-17T22:39:48.463Z,19.10
2018-09-17T22:42:16.848Z,19.20
2018-09-17T22:44:45.127Z,19.30
2018-09-17T22:47:13.909Z,19.30
2018-09-17T22:49:42.613Z,19.30
2018-09-17T22:52:11.273Z,19.20
2018-09-17T22:54:39.960Z,19.00
2018-09-17T22:57:08.257Z,19.00
2018-09-17T22:59:36.575Z,18.90
2018-09-17T23:02:04.898Z,18.90
2018-09-17T23:04:33.237Z,18.80
2018-09-17T23:07:01.682Z,18.70
2018-09-17T23:09:29.925Z,18.70
2018-09-17T23:11:58.217Z,18.90
2018-09-17T23:14:26.641Z,18.80
2018-09-17T23:16:54.857Z,18.70
2018-09-17T23:19:23.521Z,18.50
2018-09-17T23:21:51.866Z,18.70
2018-09-17T23:24:20.195Z,18.90
2018-09-17T23:26:48.556Z,19.00
2018-09-17T23:29:16.774Z,18.90
2018-09-17T23:31:44.994Z,18.80
2018-09-17T23:34:13.210Z,18.90
2018-09-17T23:36:41.550Z,18.90
2018-09-17T23:39:11.113Z,18.80
2018-09-17T23:41:39.735Z,18.60
2018-09-17T23:44:08.111Z,18.70
2018-09-17T23:46:36.797Z,18.80
2018-09-17T23:49:05.138Z,18.60
2018-09-17T23:51:33.434Z,18.60
2018-09-17T23:54:01.711Z,18.40
2018-09-17T23:56:30.134Z,18.20
2018-09-17T23:58:58.433Z,18.50
